Time,TemperatureF,DewpointF,PressureIn,WindDirection,WindDirectionDegrees,WindSpeedMPH,WindSpeedGustMPH,Humidity,HourlyPrecipIn,Conditions,Clouds,dailyrainin,SoftwareType,DateUTC
2013-02-14 00:02:00,38.0,26.0,-100.00,North,10,0.0,3.0,61,-99.99,,,-99.99,,2013-02-14 05:02:00,
2013-02-14 00:11:00,38.0,25.0,-100.00,North,10,3.0,9.0,59,-99.99,,,-99.99,,2013-02-14 05:11:00,
2013-02-14 00:22:00,38.0,25.0,-100.00,North,10,3.0,9.0,59,-99.99,,,-99.99,,2013-02-14 05:22:00,
2013-02-14 00:32:00,37.0,25.0,-100.00,North,10,2.0,4.0,63,-99.99,,,-99.99,,2013-02-14 05:32:00,
2013-02-14 00:42:00,36.0,26.0,-100.00,North,10,2.0,4.0,67,-99.99,,,-99.99,,2013-02-14 05:42:00,
2013-02-14 00:52:00,35.0,26.0,-100.00,North,10,4.0,6.0,69,-99.99,,,-99.99,,2013-02-14 05:52:00,
2013-02-14 01:02:00,36.0,27.0,-100.00,North,10,4.0,7.0,68,-99.99,,,-99.99,,2013-02-14 06:02:00,
2013-02-14 01:11:00,36.0,26.0,-100.00,North,10,4.0,10.0,67,-99.99,,,-99.99,,2013-02-14 06:11:00,
2013-02-14 01:21:00,37.0,25.0,-100.00,North,10,6.0,12.0,60,-99.99,,,-99.99,,2013-02-14 06:21:00,
2013-02-14 01:32:00,38.0,25.0,-100.00,North,10,1.0,9.0,58,-99.99,,,-99.99,,2013-02-14 06:32:00,
2013-02-14 01:42:00,37.0,25.0,-100.00,North,10,4.0,10.0,62,-99.99,,,-99.99,,2013-02-14 06:42:00,
2013-02-14 01:51:00,37.0,25.0,-100.00,North,10,4.0,8.0,62,-99.99,,,-99.99,,2013-02-14 06:51:00,
2013-02-14 02:01:00,37.0,25.0,-100.00,North,10,6.0,12.0,60,-99.99,,,-99.99,,2013-02-14 07:01:00,
2013-02-14 02:11:00,38.0,25.0,-100.00,North,10,6.0,15.0,57,-99.99,,,-99.99,,2013-02-14 07:11:00,
2013-02-14 02:21:00,36.0,24.0,-100.00,North,10,3.0,7.0,61,-99.99,,,-99.99,,2013-02-14 07:21:00,
2013-02-14 02:32:00,35.0,24.0,-100.00,North,10,0.0,5.0,66,-99.99,,,-99.99,,2013-02-14 07:32:00,
2013-02-14 02:42:00,33.0,24.0,-100.00,North,10,4.0,6.0,70,-99.99,,,-99.99,,2013-02-14 07:42:00,
2013-02-14 02:52:00,33.0,25.0,-100.00,North,10,0.0,5.0,72,-99.99,,,-99.99,,2013-02-14 07:52:00,
2013-02-14 03:01:00,32.0,25.0,-100.00,North,10,0.0,1.0,74,-99.99,,,-99.99,,2013-02-14 08:01:00,
2013-02-14 03:11:00,32.0,25.0,-100.00,North,10,0.0,4.0,76,-99.99,,,-99.99,,2013-02-14 08:11:00,
2013-02-14 03:22:00,31.0,25.0,-100.00,North,10,2.0,5.0,78,-99.99,,,-99.99,,2013-02-14 08:22:00,
2013-02-14 03:32:00,31.0,25.0,-100.00,North,10,4.0,5.0,80,-99.99,,,-99.99,,2013-02-14 08:32:00,
2013-02-14 03:43:00,31.0,26.0,-100.00,North,10,4.0,6.0,81,-99.99,,,-99.99,,2013-02-14 08:43:00,
2013-02-14 03:52:00,31.0,27.0,-100.00,North,10,7.0,9.0,82,-99.99,,,-99.99,,2013-02-14 08:52:00,
2013-02-14 04:02:00,34.0,28.0,-100.00,North,10,8.0,15.0,77,-99.99,,,-99.99,,2013-02-14 09:02:00,
2013-02-14 04:11:00,36.0,27.0,-100.00,North,10,6.0,12.0,70,-99.99,,,-99.99,,2013-02-14 09:11:00,
2013-02-14 04:21:00,36.0,26.0,-100.00,North,10,6.0,10.0,69,-99.99,,,-99.99,,2013-02-14 09:21:00,
2013-02-14 04:32:00,36.0,26.0,-100.00,North,10,10.0,12.0,68,-99.99,,,-99.99,,2013-02-14 09:32:00,
2013-02-14 04:42:00,36.0,25.0,-100.00,North,10,4.0,11.0,64,-99.99,,,-99.99,,2013-02-14 09:42:00,
2013-02-14 04:52:00,36.0,25.0,-100.00,North,10,1.0,9.0,65,-99.99,,,-99.99,,2013-02-14 09:52:00,
2013-02-14 05:02:00,35.0,25.0,-100.00,North,10,1.0,9.0,66,-99.99,,,-99.99,,2013-02-14 10:02:00,
2013-02-14 05:11:00,35.0,25.0,-100.00,North,10,4.0,6.0,66,-99.99,,,-99.99,,2013-02-14 10:11:00,
2013-02-14 05:21:00,36.0,25.0,-100.00,North,10,2.0,9.0,65,-99.99,,,-99.99,,2013-02-14 10:21:00,
2013-02-14 05:32:00,34.0,25.0,-100.00,North,10,0.0,4.0,67,-99.99,,,-99.99,,2013-02-14 10:32:00,
2013-02-14 05:42:00,34.0,25.0,-100.00,North,10,0.0,4.0,69,-99.99,,,-99.99,,2013-02-14 10:42:00,
2013-02-14 05:52:00,33.0,25.0,-100.00,North,10,2.0,5.0,71,-99.99,,,-99.99,,2013-02-14 10:52:00,
2013-02-14 06:02:00,33.0,25.0,-100.00,North,10,2.0,6.0,72,-99.99,,,-99.99,,2013-02-14 11:02:00,
2013-02-14 06:11:00,33.0,25.0,-100.00,North,10,2.0,7.0,73,-99.99,,,-99.99,,2013-02-14 11:11:00,
2013-02-14 06:22:00,33.0,25.0,-100.00,North,10,3.0,5.0,73,-99.99,,,-99.99,,2013-02-14 11:22:00,
2013-02-14 06:32:00,33.0,25.0,-100.00,North,10,4.0,6.0,73,-99.99,,,-99.99,,2013-02-14 11:32:00,
2013-02-14 06:42:00,33.0,25.0,-100.00,North,10,1.0,8.0,73,-99.99,,,-99.99,,2013-02-14 11:42:00,
2013-02-14 06:52:00,35.0,25.0,-100.00,North,10,3.0,10.0,69,-99.99,,,-99.99,,2013-02-14 11:52:00,
2013-02-14 07:02:00,34.0,25.0,-100.00,North,10,1.0,6.0,68,-99.99,,,-99.99,,2013-02-14 12:02:00,
2013-02-14 07:12:00,35.0,25.0,-100.00,North,10,4.0,9.0,67,-99.99,,,-99.99,,2013-02-14 12:12:00,
2013-02-14 07:22:00,35.0,25.0,-100.00,North,10,2.0,7.0,66,-99.99,,,-99.99,,2013-02-14 12:22:00,
2013-02-14 07:32:00,35.0,24.0,-100.00,North,10,1.0,8.0,64,-99.99,,,-99.99,,2013-02-14 12:32:00,
2013-02-14 07:42:00,35.0,24.0,-100.00,North,10,1.0,6.0,64,-99.99,,,-99.99,,2013-02-14 12:42:00,
2013-02-14 07:53:00,35.0,24.0,-100.00,North,10,0.0,3.0,63,-99.99,,,-99.99,,2013-02-14 12:53:00,
2013-02-14 08:02:00,34.0,24.0,-100.00,North,10,0.0,3.0,65,-99.99,,,-99.99,,2013-02-14 13:02:00,
2013-02-14 08:11:00,35.0,24.0,-100.00,North,10,1.0,5.0,65,-99.99,,,-99.99,,2013-02-14 13:11:00,
2013-02-14 08:21:00,34.0,24.0,-100.00,North,10,0.0,3.0,67,-99.99,,,-99.99,,2013-02-14 13:21:00,
2013-02-14 08:32:00,34.0,24.0,-100.00,North,10,0.0,3.0,67,-99.99,,,-99.99,,2013-02-14 13:32:00,
2013-02-14 08:42:00,33.0,25.0,-100.00,North,10,1.0,4.0,70,-99.99,,,-99.99,,2013-02-14 13:42:00,
2013-02-14 08:51:00,33.0,25.0,-100.00,North,10,0.0,0.0,72,-99.99,,,-99.99,,2013-02-14 13:51:00,
2013-02-14 09:01:00,33.0,25.0,-100.00,North,10,1.0,3.0,74,-99.99,,,-99.99,,2013-02-14 14:01:00,
2013-02-14 09:11:00,34.0,26.0,-100.00,North,10,0.0,1.0,74,-99.99,,,-99.99,,2013-02-14 14:11:00,
2013-02-14 09:21:00,35.0,27.0,-100.00,North,10,1.0,2.0,73,-99.99,,,-99.99,,2013-02-14 14:21:00,
2013-02-14 09:32:00,36.0,27.0,-100.00,North,10,2.0,4.0,69,-99.99,,,-99.99,,2013-02-14 14:32:00,
2013-02-14 09:42:00,38.0,28.0,-100.00,North,10,0.0,2.0,68,-99.99,,,-99.99,,2013-02-14 14:42:00,
2013-02-14 09:52:00,41.0,27.0,-100.00,North,10,2.0,4.0,58,-99.99,,,-99.99,,2013-02-14 14:52:00,
2013-02-14 10:02:00,43.0,27.0,-100.00,North,10,1.0,2.0,53,-99.99,,,-99.99,,2013-02-14 15:02:00,
2013-02-14 10:11:00,44.0,26.0,-100.00,North,10,2.0,6.0,49,-99.99,,,-99.99,,2013-02-14 15:11:00,
2013-02-14 10:22:00,45.0,25.0,-100.00,North,10,2.0,4.0,45,-99.99,,,-99.99,,2013-02-14 15:22:00,
2013-02-14 10:32:00,46.0,25.0,-100.00,North,10,1.0,6.0,43,-99.99,,,-99.99,,2013-02-14 15:32:00,
2013-02-14 10:42:00,47.0,24.0,-100.00,North,10,2.0,5.0,39,-99.99,,,-99.99,,2013-02-14 15:42:00,
2013-02-14 10:52:00,48.0,23.0,-100.00,North,10,4.0,6.0,37,-99.99,,,-99.99,,2013-02-14 15:52:00,
2013-02-14 11:02:00,48.0,23.0,-100.00,North,10,4.0,6.0,36,-99.99,,,-99.99,,2013-02-14 16:02:00,
2013-02-14 11:11:00,48.0,23.0,-100.00,North,10,3.0,8.0,36,-99.99,,,-99.99,,2013-02-14 16:11:00,
2013-02-14 11:22:00,49.0,22.0,-100.00,North,10,3.0,9.0,34,-99.99,,,-99.99,,2013-02-14 16:22:00,
2013-02-14 11:32:00,49.0,22.0,-100.00,North,10,3.0,9.0,34,-99.99,,,-99.99,,2013-02-14 16:32:00,
2013-02-14 11:42:00,51.0,23.0,-100.00,North,10,1.0,7.0,32,-99.99,,,-99.99,,2013-02-14 16:42:00,
2013-02-14 11:51:00,51.0,23.0,-100.00,North,10,1.0,7.0,32,-99.99,,,-99.99,,2013-02-14 16:51:00,
2013-02-14 12:01:00,50.0,22.0,-100.00,North,10,4.0,16.0,33,-99.99,,,-99.99,,2013-02-14 17:01:00,
2013-02-14 12:11:00,50.0,21.0,-100.00,North,10,9.0,11.0,32,-99.99,,,-99.99,,2013-02-14 17:11:00,
2013-02-14 12:21:00,49.0,22.0,-100.00,North,10,8.0,14.0,35,-99.99,,,-99.99,,2013-02-14 17:21:00,
2013-02-14 12:32:00,49.0,22.0,-100.00,North,10,8.0,13.0,35,-99.99,,,-99.99,,2013-02-14 17:32:00,
2013-02-14 12:42:00,49.0,23.0,-100.00,North,10,4.0,13.0,35,-99.99,,,-99.99,,2013-02-14 17:42:00,
2013-02-14 12:52:00,49.0,23.0,-100.00,North,10,4.0,13.0,35,-99.99,,,-99.99,,2013-02-14 17:52:00,
2013-02-14 13:02:00,52.0,23.0,-100.00,North,10,7.0,12.0,33,-99.99,,,-99.99,,2013-02-14 18:02:00,
2013-02-14 13:11:00,51.0,24.0,-100.00,North,10,4.0,10.0,34,-99.99,,,-99.99,,2013-02-14 18:11:00,
2013-02-14 13:23:00,53.0,24.0,-100.00,North,10,6.0,11.0,32,-99.99,,,-99.99,,2013-02-14 18:23:00,
2013-02-14 13:32:00,52.0,24.0,-100.00,North,10,5.0,15.0,33,-99.99,,,-99.99,,2013-02-14 18:32:00,
2013-02-14 13:42:00,53.0,24.0,-100.00,North,10,3.0,11.0,33,-99.99,,,-99.99,,2013-02-14 18:42:00,
2013-02-14 13:52:00,51.0,23.0,-100.00,North,10,9.0,14.0,33,-99.99,,,-99.99,,2013-02-14 18:52:00,
2013-02-14 14:02:00,51.0,23.0,-100.00,North,10,9.0,14.0,33,-99.99,,,-99.99,,2013-02-14 19:02:00,
2013-02-14 14:22:00,53.0,23.0,-100.00,North,10,7.0,14.0,31,-99.99,,,-99.99,,2013-02-14 19:22:00,
2013-02-14 14:32:00,54.0,24.0,-100.00,North,10,5.0,14.0,31,-99.99,,,-99.99,,2013-02-14 19:32:00,
2013-02-14 14:42:00,51.0,23.0,-100.00,North,10,6.0,17.0,32,-99.99,,,-99.99,,2013-02-14 19:42:00,
2013-02-14 14:52:00,51.0,23.0,-100.00,North,10,7.0,11.0,32,-99.99,,,-99.99,,2013-02-14 19:52:00,
2013-02-14 15:01:00,52.0,23.0,-100.00,North,10,5.0,11.0,32,-99.99,,,-99.99,,2013-02-14 20:01:00,
2013-02-14 15:11:00,52.0,23.0,-100.00,North,10,6.0,12.0,32,-99.99,,,-99.99,,2013-02-14 20:11:00,
2013-02-14 15:21:00,52.0,23.0,-100.00,North,10,6.0,15.0,32,-99.99,,,-99.99,,2013-02-14 20:21:00,
2013-02-14 15:32:00,53.0,23.0,-100.00,North,10,5.0,12.0,31,-99.99,,,-99.99,,2013-02-14 20:32:00,
2013-02-14 15:42:00,52.0,23.0,-100.00,North,10,6.0,13.0,31,-99.99,,,-99.99,,2013-02-14 20:42:00,
2013-02-14 15:52:00,52.0,22.0,-100.00,North,10,6.0,14.0,31,-99.99,,,-99.99,,2013-02-14 20:52:00,
2013-02-14 16:02:00,52.0,22.0,-100.00,North,10,3.0,9.0,31,-99.99,,,-99.99,,2013-02-14 21:02:00,
2013-02-14 16:11:00,52.0,22.0,-100.00,North,10,1.0,9.0,31,-99.99,,,-99.99,,2013-02-14 21:11:00,
2013-02-14 16:22:00,52.0,22.0,-100.00,North,10,3.0,11.0,31,-99.99,,,-99.99,,2013-02-14 21:22:00,
2013-02-14 16:32:00,52.0,22.0,-100.00,North,10,1.0,11.0,31,-99.99,,,-99.99,,2013-02-14 21:32:00,
2013-02-14 16:42:00,52.0,22.0,-100.00,North,10,6.0,10.0,30,-99.99,,,-99.99,,2013-02-14 21:42:00,
2013-02-14 16:51:00,53.0,22.0,-100.00,North,10,5.0,11.0,30,-99.99,,,-99.99,,2013-02-14 21:51:00,
2013-02-14 17:02:00,52.0,21.0,-100.00,North,10,4.0,10.0,30,-99.99,,,-99.99,,2013-02-14 22:02:00,
2013-02-14 17:11:00,52.0,22.0,-100.00,North,10,3.0,9.0,31,-99.99,,,-99.99,,2013-02-14 22:11:00,
2013-02-14 17:21:00,51.0,22.0,-100.00,North,10,4.0,9.0,31,-99.99,,,-99.99,,2013-02-14 22:21:00,
2013-02-14 17:32:00,51.0,22.0,-100.00,North,10,1.0,9.0,31,-99.99,,,-99.99,,2013-02-14 22:32:00,
2013-02-14 17:42:00,51.0,22.0,-100.00,North,10,2.0,6.0,32,-99.99,,,-99.99,,2013-02-14 22:42:00,
2013-02-14 17:51:00,51.0,22.0,-100.00,North,10,1.0,6.0,32,-99.99,,,-99.99,,2013-02-14 22:51:00,
2013-02-14 18:01:00,50.0,22.0,-100.00,North,10,4.0,6.0,32,-99.99,,,-99.99,,2013-02-14 23:01:00,
2013-02-14 18:11:00,50.0,21.0,-100.00,North,10,2.0,7.0,32,-99.99,,,-99.99,,2013-02-14 23:11:00,
2013-02-14 18:21:00,50.0,22.0,-100.00,North,10,2.0,5.0,33,-99.99,,,-99.99,,2013-02-14 23:21:00,
2013-02-14 18:32:00,49.0,23.0,-100.00,North,10,0.0,3.0,36,-99.99,,,-99.99,,2013-02-14 23:32:00,
2013-02-14 18:42:00,47.0,24.0,-100.00,North,10,0.0,0.0,39,-99.99,,,-99.99,,2013-02-14 23:42:00,
2013-02-14 18:52:00,46.0,24.0,-100.00,North,10,0.0,0.0,41,-99.99,,,-99.99,,2013-02-14 23:52:00,
2013-02-14 19:02:00,45.0,24.0,-100.00,North,10,0.0,1.0,44,-99.99,,,-99.99,,2013-02-15 00:02:00,
2013-02-14 19:11:00,44.0,25.0,-100.00,North,10,0.0,0.0,47,-99.99,,,-99.99,,2013-02-15 00:11:00,
2013-02-14 19:22:00,43.0,26.0,-100.00,North,10,0.0,0.0,50,-99.99,,,-99.99,,2013-02-15 00:22:00,
2013-02-14 19:32:00,42.0,27.0,-100.00,North,10,0.0,0.0,54,-99.99,,,-99.99,,2013-02-15 00:32:00,
2013-02-14 19:42:00,41.0,28.0,-100.00,North,10,0.0,0.0,58,-99.99,,,-99.99,,2013-02-15 00:42:00,
2013-02-14 19:52:00,41.0,28.0,-100.00,North,10,0.0,0.0,58,-99.99,,,-99.99,,2013-02-15 00:52:00,
2013-02-14 20:02:00,40.0,29.0,-100.00,North,10,0.0,2.0,64,-99.99,,,-99.99,,2013-02-15 01:02:00,
2013-02-14 20:11:00,39.0,29.0,-100.00,North,10,0.0,1.0,66,-99.99,,,-99.99,,2013-02-15 01:11:00,
2013-02-14 20:21:00,39.0,29.0,-100.00,North,10,0.0,0.0,68,-99.99,,,-99.99,,2013-02-15 01:21:00,
2013-02-14 20:32:00,39.0,29.0,-100.00,North,10,0.0,0.0,68,-99.99,,,-99.99,,2013-02-15 01:32:00,
2013-02-14 20:42:00,37.0,29.0,-100.00,North,10,0.0,1.0,72,-99.99,,,-99.99,,2013-02-15 01:42:00,
2013-02-14 20:51:00,37.0,29.0,-100.00,North,10,0.0,0.0,74,-99.99,,,-99.99,,2013-02-15 01:51:00,
2013-02-14 21:01:00,36.0,29.0,-100.00,North,10,0.0,0.0,76,-99.99,,,-99.99,,2013-02-15 02:01:00,
2013-02-14 21:11:00,36.0,29.0,-100.00,North,10,0.0,1.0,77,-99.99,,,-99.99,,2013-02-15 02:11:00,
2013-02-14 21:21:00,35.0,29.0,-100.00,North,10,0.0,1.0,78,-99.99,,,-99.99,,2013-02-15 02:21:00,
2013-02-14 21:32:00,35.0,29.0,-100.00,North,10,0.0,0.0,79,-99.99,,,-99.99,,2013-02-15 02:32:00,
2013-02-14 21:42:00,34.0,29.0,-100.00,North,10,0.0,1.0,81,-99.99,,,-99.99,,2013-02-15 02:42:00,
2013-02-14 21:52:00,34.0,29.0,-100.00,North,10,0.0,1.0,82,-99.99,,,-99.99,,2013-02-15 02:52:00,
2013-02-14 22:02:00,34.0,29.0,-100.00,North,10,0.0,0.0,83,-99.99,,,-99.99,,2013-02-15 03:02:00,
2013-02-14 22:11:00,33.0,29.0,-100.00,North,10,0.0,0.0,83,-99.99,,,-99.99,,2013-02-15 03:11:00,
2013-02-14 22:22:00,33.0,28.0,-100.00,North,10,0.0,0.0,84,-99.99,,,-99.99,,2013-02-15 03:22:00,
2013-02-14 22:32:00,33.0,29.0,-100.00,North,10,0.0,1.0,85,-99.99,,,-99.99,,2013-02-15 03:32:00,
2013-02-14 22:42:00,32.0,28.0,-100.00,North,10,0.0,1.0,85,-99.99,,,-99.99,,2013-02-15 03:42:00,
2013-02-14 22:52:00,32.0,28.0,-100.00,North,10,0.0,0.0,86,-99.99,,,-99.99,,2013-02-15 03:52:00,
2013-02-14 23:02:00,32.0,28.0,-100.00,North,10,0.0,0.0,86,-99.99,,,-99.99,,2013-02-15 04:02:00,
2013-02-14 23:11:00,31.0,28.0,-100.00,North,10,0.0,1.0,87,-99.99,,,-99.99,,2013-02-15 04:11:00,
2013-02-14 23:21:00,31.0,28.0,-100.00,North,10,1.0,1.0,87,-99.99,,,-99.99,,2013-02-15 04:21:00,
2013-02-14 23:32:00,31.0,28.0,-100.00,North,10,0.0,1.0,87,-99.99,,,-99.99,,2013-02-15 04:32:00,
2013-02-14 23:42:00,31.0,27.0,-100.00,North,10,0.0,0.0,87,-99.99,,,-99.99,,2013-02-15 04:42:00,
2013-02-14 23:52:00,30.0,27.0,-100.00,North,10,0.0,1.0,88,-99.99,,,-99.99,,2013-02-15 04:52:00,